In Rescue
 
Open Full Screen Window  High Contrast Mode
Wind Gusting 00 knots
05
July 24, 2024 6:43 PM EDT
Weather Information
Wind Direction
  330 °
Wind Speed
  05 kt (6 mph)
Wind Gust
  00 kt (0 mph)
Altimeter
30.11 in
Visibility
10 SM
Temperature
21° C
70° F
Dewpoint
13° C
55° F
Humidity
60%
1hr Rain Fall
00.00 in.
24hr Rain Fall
00.15 in.
Sky Condition
Overcast @ 6,500 ft
VFR

METAR KY31 242243Z AUTO 33005KT 10SM OVC065 21/13 A3011 RMK AO2 T02050132

FAA Disclaimer: The data displayed is for advisory purposes only and is not to be used for flight planning or operations.